• Join FlightAware (Why Join?)
  • Login
  • US Flag 
03:19PM EST


 

Airport Tracker/Info


-or-


 

Live Flight TrackerFlight Track Log ✈ N244A ✈ 05-Jul-2013 ✈ KART - KFRG

Flight Track Log - Related Links

Times and Time Zones

All times are in EDT time to prevent confusion due to time zone crossing. See the N244A flight status page for this flight to view local times or setup timezone preferences in your user account.

Time Position Orientation Groundspeed Altitude Reporting Facility
EDT Latitude Longitude Course Direction KTS MPH feet Rate Location/Type
12:54PM 40.8760 -73.5244 149° Southeast  Level Estimated
12:55PM 40.8734 -73.5225 150° Southeast  Level Estimated
12:56PM 40.8709 -73.5206 150° Southeast  Level Estimated
12:57PM 40.8684 -73.5187 150° Southeast  Level Estimated
12:58PM 40.8659 -73.5168 150° Southeast  Level Estimated
12:59PM 40.8634 -73.5149 150° Southeast  Level Estimated
01:00PM 40.8608 -73.5130 150° Southeast  Level Estimated
01:01PM 40.8583 -73.5110 150° Southeast  Level Estimated
01:02PM 40.8558 -73.5091 150° Southeast  Level Estimated
01:03PM 40.8533 -73.5072 150° Southeast  Level Estimated
01:04PM 40.8508 -73.5053 150° Southeast  Level Estimated
01:05PM 40.8482 -73.5034 150° Southeast  Level Estimated
01:06PM 40.8457 -73.5015 150° Southeast  Level Estimated
01:07PM 40.8432 -73.4996 150° Southeast  Level Estimated
01:08PM 40.8407 -73.4977 150° Southeast  Level Estimated
01:09PM 40.8382 -73.4958 150° Southeast  Level Estimated
01:10PM 40.8356 -73.4939 150° Southeast  Level Estimated
01:11PM 40.8331 -73.4920 150° Southeast  Level Estimated
01:12PM 40.8306 -73.4901 150° Southeast  Level Estimated
01:13PM 40.8281 -73.4882 150° Southeast  Level Estimated
01:14PM 40.8256 -73.4863 150° Southeast  Level Estimated
01:15PM 40.8230 -73.4844 150° Southeast  Level Estimated
01:16PM 40.8205 -73.4825 150° Southeast  Level Estimated
01:17PM 40.8180 -73.4806 150° Southeast  Level Estimated
01:18PM 40.8155 -73.4787 150° Southeast  Level Estimated
01:19PM 40.8130 -73.4768 150° Southeast  Level Estimated
01:20PM 40.8104 -73.4749 150° Southeast  Level Estimated
01:21PM 40.8079 -73.4730 150° Southeast  Level Estimated
01:22PM 40.8054 -73.4711 150° Southeast  Level Estimated
01:23PM 40.8029 -73.4692 150° Southeast  Level Estimated
01:24PM 40.8004 -73.4673 150° Southeast  Level Estimated
01:25PM 40.7978 -73.4654 150° Southeast  Level Estimated
01:26PM 40.7953 -73.4635 150° Southeast  Level Estimated
01:27PM 40.7928 -73.4616 150° Southeast  Level Estimated
01:28PM 40.7903 -73.4597 150° Southeast  Level Estimated
01:29PM 40.7878 -73.4578 150° Southeast  Level Estimated
01:30PM 40.7852 -73.4559 150° Southeast  Level Estimated
01:31PM 40.7827 -73.4540 150° Southeast  Level Estimated
01:32PM 40.7802 -73.4521 150° Southeast  Level Estimated
01:33PM 40.7777 -73.4502 150° Southeast  Level Estimated
01:34PM 40.7752 -73.4483 150° Southeast  Level Estimated
01:35PM 40.7726 -73.4464 150° Southeast  Level Estimated
01:36PM 40.7701 -73.4445 150° Southeast  Level Estimated
01:37PM 40.7676 -73.4426 150° Southeast  Level Estimated
01:38PM 40.7651 -73.4407 150° Southeast  Level Estimated
01:39PM 40.7626 -73.4388 150° Southeast  Level Estimated
01:40PM 40.7600 -73.4369 150° Southeast  Level Estimated
01:41PM 40.7575 -73.4350 150° Southeast  Level Estimated
01:42PM 40.7550 -73.4331 150° Southeast  Level Estimated
01:43PM 40.7525 -73.4312 150° Southeast  Level Estimated
01:44PM 40.7500 -73.4293 150° Southeast  Level Estimated
01:45PM 40.7474 -73.4274 150° Southeast  Level Estimated
01:46PM 40.7449 -73.4255 150° Southeast  Level Estimated
01:47PM 40.7424 -73.4236 150° Southeast  Level Estimated
01:48PM 40.7399 -73.4217 150° Southeast  Level Estimated
01:49PM 40.7373 -73.4198 150° Southeast  Level Estimated
01:50PM 40.7348 -73.4179 150° Southeast  Level Estimated
01:51PM 40.7323 -73.4161 150° Southeast  Level Estimated
01:52PM 40.7298 -73.4141 150° Southeast  Level Estimated
01:53PM 40.7288 -73.4134 151° Southeast  Level Estimated
01:54PM 40.7288 -73.4134 131° Southeast  Level Estimated
01:55PM 40.7288 -73.4134 131° Southeast  Level Estimated
01:56PM 40.7288 -73.4134 131° Southeast  Level Estimated
01:57PM 40.7288 -73.4134 131° Southeast  Level Estimated
01:58PM 40.7288 -73.4134 131° Southeast  Level Estimated
01:59PM 40.7288 -73.4134 131° Southeast  Level Estimated
02:00PM 40.7288 -73.4134 131° Southeast  Level Estimated
02:01PM 40.7288 -73.4134 131° Southeast  Level Estimated
02:02PM 40.7288 -73.4134 131° Southeast  Level Estimated
02:03PM 40.7288 -73.4134 131° Southeast  Level Estimated
02:04PM 40.7288 -73.4134 131° Southeast  Level Estimated
02:05PM 40.7288 -73.4134 131° Southeast  Level Estimated
02:06PM 40.7288 -73.4134 131° Southeast  Level Estimated
02:07PM 40.7288 -73.4134 131° Southeast  Level Estimated
02:08PM 40.7288 -73.4134 131° Southeast  Level Estimated